This is the latest recevied weather packets stored in our database for station/object GW1599. If no packets are shown the sender has not sent any weather packets the latest 10 day(s).
| Time | Temp. | Humidity | Pressure | Rain* | Wind** | Luminosity | Snow |
|---|---|---|---|---|---|---|---|
| 1777873000 | 8.33° C | 92% | 1016.9 hPa | 1.52 mm | - | - | - |
| 1777868671 | 8.89° C | 84% | 1017.2 hPa | 0.25 mm | - | - | - |
| 1777867604 | 8.89° C | 82% | 1017.2 hPa | 0 mm | - | - | - |
| 1777865772 | 8.89° C | 75% | 1016.9 hPa | 0 mm | - | - | - |
| 1777865436 | 8.89° C | 74% | 1016.9 hPa | 0 mm | - | - | - |
| 1777863254 | 9.44° C | 72% | 1016.9 hPa | 0 mm | - | - | - |
| 1777862540 | 9.44° C | 70% | 1016.9 hPa | 0 mm | - | - | - |
| 1777861827 | 10° C | 68% | 1016.9 hPa | 0 mm | - | - | - |
| 1777861114 | 10° C | 67% | 1016.5 hPa | 0 mm | - | - | - |
| 1777860380 | 10° C | 67% | 1016.5 hPa | 0 mm | - | - | - |
| 1777857134 | 12.22° C | 61% | 1016.9 hPa | 0 mm | - | - | - |
| 1777856078 | 12.78° C | 57% | 1016.2 hPa | 0 mm | - | - | - |
| 1777849972 | 16.11° C | 42% | 1016.5 hPa | 0 mm | - | - | - |
| 1777848143 | 16.11° C | 37% | 1016.9 hPa | 0 mm | - | - | - |
| 1777836981 | 17.78° C | 39% | 1018.9 hPa | 0 mm | - | - | - |
| 1777836643 | 17.78° C | 40% | 1019.3 hPa | 0 mm | - | - | - |
| 1777832334 | 16.67° C | 40% | 1020.3 hPa | 0 mm | - | - | - |
| 1777830500 | 16.11° C | 39% | 1020.9 hPa | 0 mm | - | - | - |
| 1777824410 | 14.44° C | 42% | 1022 hPa | 0 mm | - | - | - |
| 1777823677 | 14.44° C | 45% | 1022 hPa | 0 mm | - | - | - |
| 1777821138 | 13.33° C | 48% | 1022.3 hPa | 0 mm | - | - | - |
| 1777820790 | 13.33° C | 50% | 1022.3 hPa | 0 mm | - | - | - |
| 1777820078 | 12.78° C | 51% | 1022.3 hPa | 0 mm | - | - | - |
| 1777818641 | 12.22° C | 61% | 1022.3 hPa | 0 mm | - | - | - |
| 1777816828 | 10.56° C | 66% | 1022.6 hPa | 0 mm | - | - | - |
* Rain since midnight (hover to see other rain measurements)
** Current wind speed in m/s (hover to see current wind gust speed)